createdAt,value
2022-08-08T00:00:54.656Z,12.03076
2022-08-08T00:06:03.769Z,12.6776
2022-08-08T00:11:07.932Z,13.87516
2022-08-08T00:16:14.942Z,12.49395
2022-08-08T00:21:16.933Z,13.74368
2022-08-08T00:26:26.300Z,12.81372
2022-08-08T00:32:28.742Z,12.47146
2022-08-08T00:37:47.742Z,13.1675
2022-08-08T00:43:06.043Z,12.56587
2022-08-08T00:48:29.312Z,13.25455
2022-08-08T00:53:32.270Z,13.19898
2022-08-08T00:58:54.070Z,13.49481
2022-08-08T01:04:02.028Z,13.42987
2022-08-08T01:09:36.487Z,12.9866
2022-08-08T01:14:53.998Z,13.23324
2022-08-08T01:20:03.284Z,14.07089
2022-08-08T01:25:05.370Z,14.23989
2022-08-08T01:30:10.160Z,14.96497
2022-08-08T01:35:12.484Z,15.6128
2022-08-08T01:40:14.748Z,15.86127
2022-08-08T01:45:16.574Z,16.38453
2022-08-08T01:50:20.757Z,16.44247
2022-08-08T01:56:27.134Z,16.81205
2022-08-08T02:02:00.330Z,17.51343
2022-08-08T02:07:06.655Z,17.62889
2022-08-08T02:12:08.678Z,17.72476
2022-08-08T02:17:20.399Z,17.58425
2022-08-08T02:22:28.245Z,18.50629
2022-08-08T02:27:38.918Z,18.96471
2022-08-08T02:32:44.692Z,18.89902
2022-08-08T02:37:53.390Z,19.3678
2022-08-08T02:44:35.447Z,19.3805
2022-08-08T02:49:50.882Z,20.29179
2022-08-08T02:54:53.430Z,20.84297
2022-08-08T02:59:58.476Z,19.89153
2022-08-08T03:05:17.616Z,24.29855
2022-08-08T03:10:33.412Z,24.45082
2022-08-08T03:16:00.297Z,22.50014
2022-08-08T03:21:10.200Z,22.26819
2022-08-08T03:26:16.484Z,22.47964
2022-08-08T03:31:25.435Z,24.2832
2022-08-08T03:36:30.092Z,24.06623
2022-08-08T03:42:28.742Z,24.58307
2022-08-08T03:47:39.514Z,25.67566
2022-08-08T03:52:47.895Z,28.23955
2022-08-08T03:58:36.129Z,28.02186
2022-08-08T04:03:58.388Z,33.21811
2022-08-08T04:09:10.758Z,28.21632
2022-08-08T04:14:35.373Z,32.15708
2022-08-08T04:19:37.895Z,29.10993
2022-08-08T04:24:40.644Z,29.12924
2022-08-08T04:29:55.396Z,27.68953
2022-08-08T04:35:02.958Z,27.09479
2022-08-08T04:40:08.145Z,26.7502
2022-08-08T04:45:14.163Z,27.33183
2022-08-08T04:50:23.919Z,27.21394
2022-08-08T04:55:29.251Z,30.11459
2022-08-08T05:00:49.933Z,32.12901
2022-08-08T05:05:53.634Z,29.44291
2022-08-08T05:10:55.322Z,28.66809
2022-08-08T05:16:47.961Z,31.43325
2022-08-08T05:22:00.010Z,28.75252
2022-08-08T05:27:02.422Z,30.67583
2022-08-08T05:32:06.152Z,34.01234
2022-08-08T05:37:18.516Z,30.81206
2022-08-08T05:42:25.733Z,29.76232
2022-08-08T05:47:29.897Z,30.21828
2022-08-08T05:52:54.780Z,29.53309
2022-08-08T05:58:04.067Z,30.77086
2022-08-08T06:03:07.628Z,29.53261
2022-08-08T06:08:28.266Z,29.95315
2022-08-08T06:13:47.066Z,31.01434
2022-08-08T06:18:50.142Z,30.97432
2022-08-08T06:24:02.278Z,32.83448
2022-08-08T06:29:10.678Z,31.78865
2022-08-08T06:34:52.552Z,31.8743
2022-08-08T06:40:16.169Z,34.71501
2022-08-08T06:45:18.499Z,37.7951
2022-08-08T06:50:32.334Z,34.00184
2022-08-08T06:55:37.427Z,33.6078
2022-08-08T07:00:41.027Z,33.18812
2022-08-08T07:05:42.834Z,35.02688
2022-08-08T07:11:03.627Z,33.91667
2022-08-08T07:16:10.259Z,34.53555
2022-08-08T07:21:19.078Z,35.14108
2022-08-08T07:26:28.942Z,35.80494
2022-08-08T07:31:35.300Z,35.83547
2022-08-08T07:36:37.427Z,55.19098
2022-08-08T07:42:03.527Z,41.73884
2022-08-08T07:47:06.483Z,38.79383
2022-08-08T07:52:09.033Z,37.263
2022-08-08T07:57:17.058Z,38.001
2022-08-08T08:02:34.910Z,43.78224
2022-08-08T08:07:40.102Z,48.51161
2022-08-08T08:12:43.531Z,41.09029
2022-08-08T08:17:48.506Z,38.33837
2022-08-08T08:22:51.122Z,38.96976
2022-08-08T08:27:53.374Z,44.70786
2022-08-08T08:32:55.016Z,53.24316
2022-08-08T08:38:15.796Z,45.64912
2022-08-08T08:43:20.290Z,47.33098
2022-08-08T08:48:28.908Z,42.41149
2022-08-08T08:53:56.199Z,44.98085
2022-08-08T08:59:01.715Z,41.10724
2022-08-08T09:04:03.715Z,40.09736
2022-08-08T09:09:05.330Z,41.6128
2022-08-08T09:14:09.276Z,41.93031
2022-08-08T09:19:12.198Z,44.94516
2022-08-08T09:24:14.472Z,42.44153
2022-08-08T09:29:22.553Z,41.06573
2022-08-08T09:34:32.442Z,41.98793
2022-08-08T09:39:34.708Z,42.33838
2022-08-08T09:44:38.237Z,42.83252
2022-08-08T09:49:49.851Z,41.23314
2022-08-08T09:54:52.025Z,45.38751
2022-08-08T10:00:28.719Z,47.45377
2022-08-08T10:05:36.057Z,42.16961
2022-08-08T10:10:49.794Z,46.18948
2022-08-08T10:16:00.789Z,46.13333
2022-08-08T10:21:22.940Z,43.26938
2022-08-08T10:26:30.640Z,42.24792
2022-08-08T10:31:46.733Z,42.758
2022-08-08T10:36:49.265Z,44.99366
2022-08-08T10:41:58.830Z,41.52324
2022-08-08T10:47:20.719Z,46.85705
2022-08-08T10:52:28.119Z,42.57986
2022-08-08T10:57:45.144Z,43.1628
2022-08-08T11:02:52.325Z,42.69328
2022-08-08T11:08:38.099Z,44.79789
2022-08-08T11:13:41.054Z,46.58803
2022-08-08T11:18:53.872Z,44.21477
2022-08-08T11:24:02.125Z,44.39455
2022-08-08T11:29:04.729Z,53.47746
2022-08-08T11:34:22.911Z,49.15565
2022-08-08T11:39:27.657Z,44.80142
2022-08-08T11:44:39.111Z,44.40248
2022-08-08T11:49:42.688Z,48.96012
2022-08-08T11:54:46.683Z,44.16068
2022-08-08T11:59:58.400Z,45.63392
2022-08-08T12:05:04.288Z,46.1194
2022-08-08T12:10:08.828Z,45.44681
2022-08-08T12:15:10.744Z,47.61657
2022-08-08T12:20:14.826Z,44.69996
2022-08-08T12:25:16.448Z,45.64164
2022-08-08T12:30:21.727Z,44.89214
2022-08-08T12:35:26.860Z,47.19766
2022-08-08T12:40:29.854Z,46.31193
2022-08-08T12:45:58.204Z,46.2753
2022-08-08T12:51:04.383Z,47.92271
2022-08-08T12:56:18.713Z,49.66229
2022-08-08T13:01:36.239Z,45.04525
2022-08-08T13:06:38.885Z,54.91981
2022-08-08T13:12:04.040Z,47.84281
2022-08-08T13:18:08.559Z,48.0136
2022-08-08T13:23:30.855Z,45.88747
2022-08-08T13:28:42.068Z,46.51816
2022-08-08T13:33:44.478Z,46.35891
2022-08-08T13:38:46.081Z,51.07792
2022-08-08T13:43:49.936Z,54.09741
2022-08-08T13:50:33.605Z,51.85925
2022-08-08T13:55:39.903Z,53.29739
2022-08-08T14:00:45.976Z,54.56891
2022-08-08T14:06:00.525Z,55.66013
2022-08-08T14:11:03.331Z,53.70061
2022-08-08T14:16:15.835Z,46.11514
2022-08-08T14:21:20.762Z,51.31558
2022-08-08T14:26:28.106Z,55.41479
2022-08-08T14:31:36.830Z,56.91168
2022-08-08T14:37:08.293Z,61.08513
2022-08-08T14:42:10.264Z,56.2913
2022-08-08T14:47:16.898Z,54.31356
2022-08-08T14:52:23.252Z,49.09841
2022-08-08T14:58:02.985Z,50.88901
2022-08-08T15:03:16.081Z,47.07162
2022-08-08T15:08:22.111Z,49.82553
2022-08-08T15:13:40.954Z,51.67016
2022-08-08T15:19:03.132Z,52.51279
2022-08-08T15:24:04.746Z,46.64474
2022-08-08T15:29:14.291Z,44.00974
2022-08-08T15:34:18.812Z,47.57496
2022-08-08T15:39:37.439Z,47.96737
2022-08-08T15:44:41.018Z,39.65117
2022-08-08T15:49:43.889Z,40.2467
2022-08-08T15:54:46.108Z,39.97512
2022-08-08T16:00:10.971Z,36.89967
2022-08-08T16:05:36.062Z,35.21791
2022-08-08T16:13:28.300Z,42.54737
2022-08-08T16:18:35.957Z,40.1987
2022-08-08T16:23:37.568Z,38.74437
2022-08-08T16:28:41.479Z,34.70698
2022-08-08T16:33:59.060Z,35.36127
2022-08-08T16:39:01.310Z,31.23306
2022-08-08T16:44:12.855Z,33.18943
2022-08-08T16:49:14.653Z,32.92435
2022-08-08T16:55:18.387Z,30.29397
2022-08-08T17:00:27.422Z,31.79658
2022-08-08T17:05:31.363Z,30.94905
2022-08-08T17:10:57.923Z,27.87826
2022-08-08T17:16:15.204Z,25.70783
2022-08-08T17:21:17.390Z,25.73398
2022-08-08T17:26:28.826Z,25.21995
2022-08-08T17:31:44.243Z,24.64007
2022-08-08T17:37:00.363Z,25.88992
2022-08-08T17:42:04.962Z,24.95253
2022-08-08T17:47:06.670Z,25.39479
2022-08-08T17:52:11.473Z,25.24643
2022-08-08T17:57:14.231Z,23.56833
2022-08-08T18:02:21.231Z,23.63438
2022-08-08T18:08:02.356Z,23.7082
2022-08-08T18:13:07.580Z,22.29964
2022-08-08T18:18:29.260Z,21.27092
2022-08-08T18:23:33.695Z,20.98436
2022-08-08T18:28:54.796Z,21.04997
2022-08-08T18:34:12.268Z,20.38229
2022-08-08T18:39:29.612Z,20.33548
2022-08-08T18:44:32.913Z,19.77591
2022-08-08T18:49:54.694Z,19.16479
2022-08-08T18:55:09.634Z,19.47935
2022-08-08T19:00:16.816Z,20.25223
2022-08-08T19:05:21.577Z,19.09258
2022-08-08T19:10:23.370Z,20.39552
2022-08-08T19:15:33.879Z,20.05272
2022-08-08T19:20:36.159Z,19.78316
2022-08-08T19:26:02.019Z,20.21373
2022-08-08T19:31:31.042Z,21.23115
2022-08-08T19:36:36.565Z,20.77273
2022-08-08T19:41:39.888Z,20.1144
2022-08-08T19:46:43.177Z,19.41901
2022-08-08T19:51:46.654Z,17.2722
2022-08-08T19:56:50.691Z,17.52283
2022-08-08T20:02:03.552Z,15.95564
2022-08-08T20:08:30.538Z,14.47257
2022-08-08T20:14:31.545Z,15.52013
2022-08-08T20:19:42.247Z,14.94444
2022-08-08T20:24:45.148Z,13.82849
2022-08-08T20:30:01.078Z,11.72731
2022-08-08T20:35:03.163Z,11.67905
2022-08-08T20:40:04.829Z,11.27912
2022-08-08T20:45:06.490Z,12.46432
2022-08-08T20:50:10.015Z,10.41943
2022-08-08T20:55:16.228Z,11.26407
2022-08-08T21:00:27.497Z,10.64886
2022-08-08T21:05:31.957Z,11.89588
2022-08-08T21:10:33.854Z,10.87071
2022-08-08T21:16:05.811Z,9.61248
2022-08-08T21:21:29.755Z,9.20942
2022-08-08T21:26:42.920Z,9.78229
2022-08-08T21:31:53.030Z,9.33112
2022-08-08T21:37:05.290Z,9.23032
2022-08-08T21:42:13.043Z,8.91841
2022-08-08T21:48:08.717Z,9.007
2022-08-08T21:54:34.835Z,8.34893
2022-08-08T22:00:02.836Z,7.43074
2022-08-08T22:05:06.456Z,7.5746
2022-08-08T22:10:09.362Z,9.32541
2022-08-08T22:15:11.206Z,8.72951
2022-08-08T22:20:23.709Z,8.14154
2022-08-08T22:25:29.960Z,8.44608
2022-08-08T22:31:21.764Z,7.97415
2022-08-08T22:36:34.346Z,7.46833
2022-08-08T22:41:36.420Z,7.9958
2022-08-08T22:46:41.152Z,8.97367
2022-08-08T22:51:46.812Z,8.65767
2022-08-08T22:56:50.123Z,9.68174
2022-08-08T23:02:03.721Z,8.19658
2022-08-08T23:07:06.372Z,8.78924
2022-08-08T23:12:28.705Z,9.70865
2022-08-08T23:17:54.074Z,8.73057
2022-08-08T23:22:56.164Z,9.53803
2022-08-08T23:27:57.852Z,9.92193
2022-08-08T23:33:01.148Z,8.60555
2022-08-08T23:38:03.885Z,9.05605
2022-08-08T23:43:05.670Z,9.55505
2022-08-08T23:48:59.628Z,8.6736
2022-08-08T23:54:53.207Z,8.87403
